Time;durP1;ratioP1;P1;durP2;ratioP2;P2;SDS_P1;SDS_P2;PMS_P1;PMS_P2;Temp;Humidity;BMP_temperature;BMP_pressure;BME280_temperature;BME280_humidity;BME280_pressure;Samples;Min_cycle;Max_cycle;Signal;HPM_P1;HPM_P2
2022/08/25 00:00:23;;;;;;;15.50;3.50;;;;;19.20;97485.40;;;;110804;1249;42001;-64
2022/08/25 00:03:07;;;;;;;10.00;3.30;;;;;19.20;97485.80;;;;110762;1251;41716;-65
2022/08/25 00:05:36;;;;;;;10.70;3.40;;;;;19.10;97494.80;;;;110812;1249;41397;-66
2022/08/25 00:08:06;;;;;;;10.50;2.80;;;;;19.10;97489.40;;;;111020;1249;41610;-65
2022/08/25 00:10:38;;;;;;;10.30;3.10;;;;;19.00;97494.20;;;;110965;1249;42537;-66
2022/08/25 00:13:08;;;;;;;14.30;3.40;;;;;19.00;97490.20;;;;110951;1250;41345;-65
2022/08/25 00:15:38;;;;;;;11.90;4.50;;;;;18.98;97490.80;;;;110778;1249;42648;-66
2022/08/25 00:18:07;;;;;;;13.20;5.00;;;;;18.90;97490.20;;;;110903;1248;41983;-65
2022/08/25 00:20:46;;;;;;;11.10;3.60;;;;;18.90;97486.40;;;;110620;1251;41738;-65
2022/08/25 00:23:17;;;;;;;12.40;4.40;;;;;18.90;97481.40;;;;110892;1249;41386;-66
2022/08/25 00:25:46;;;;;;;12.30;4.80;;;;;18.80;97484.20;;;;110806;1249;41804;-65
2022/08/25 00:28:16;;;;;;;12.00;4.20;;;;;18.70;97475.80;;;;110693;1249;41958;-65
2022/08/25 00:30:47;;;;;;;12.70;4.60;;;;;18.60;97471.40;;;;110702;1250;41265;-65
2022/08/25 00:33:18;;;;;;;12.50;4.20;;;;;18.50;97470.60;;;;110758;1249;41903;-66
2022/08/25 00:35:49;;;;;;;10.10;4.20;;;;;18.50;97468.80;;;;110818;1249;41933;-66
2022/08/25 00:38:18;;;;;;;9.40;3.60;;;;;18.50;97466.20;;;;110753;1250;41622;-65
2022/08/25 00:41:04;;;;;;;12.40;4.20;;;;;18.50;97466.20;;;;110951;1248;41306;-66
2022/08/25 00:43:40;;;;;;;13.90;5.00;;;;;18.50;97463.40;;;;110958;1249;42181;-64
2022/08/25 00:46:12;;;;;;;13.00;4.80;;;;;18.34;97457.60;;;;110798;1250;41777;-65
2022/08/25 00:48:42;;;;;;;12.30;4.50;;;;;18.30;97459.20;;;;110887;1249;42381;-65
2022/08/25 00:51:17;;;;;;;11.70;3.70;;;;;18.20;97461.00;;;;110967;1249;41191;-65
2022/08/25 00:53:46;;;;;;;10.90;3.50;;;;;18.20;97461.00;;;;110950;1248;41144;-65
2022/08/25 00:56:16;;;;;;;9.10;3.70;;;;;18.20;97461.20;;;;110698;1249;41261;-65
2022/08/25 00:58:46;;;;;;;10.30;4.30;;;;;18.20;97458.60;;;;110836;1249;41738;-65
2022/08/25 01:01:15;;;;;;;10.20;3.30;;;;;18.16;97462.20;;;;110585;1250;41622;-65
2022/08/25 01:03:46;;;;;;;9.70;3.90;;;;;18.10;97459.00;;;;110632;1250;41249;-65
2022/08/25 01:06:16;;;;;;;11.10;3.50;;;;;18.10;97452.00;;;;110643;1249;41273;-65
2022/08/25 01:08:46;;;;;;;10.80;3.90;;;;;18.10;97454.80;;;;110836;1250;41400;-65
2022/08/25 01:11:16;;;;;;;13.10;3.70;;;;;18.10;97454.00;;;;110935;1249;41149;-65
2022/08/25 01:13:52;;;;;;;10.50;3.90;;;;;18.10;97448.60;;;;110613;1251;41277;-65
2022/08/25 01:16:21;;;;;;;8.60;3.70;;;;;18.10;97444.40;;;;110673;1250;41859;-65
2022/08/25 01:18:56;;;;;;;10.00;3.40;;;;;18.00;97438.40;;;;110781;1250;42029;-65
2022/08/25 01:21:28;;;;;;;8.90;3.00;;;;;18.00;97439.00;;;;110740;1249;41982;-65
2022/08/25 01:23:59;;;;;;;10.00;3.00;;;;;17.94;97439.20;;;;110933;1250;41136;-65
2022/08/25 01:26:32;;;;;;;9.20;2.80;;;;;17.90;97439.80;;;;110750;1250;41678;-64
2022/08/25 01:29:20;;;;;;;7.90;3.00;;;;;17.90;97437.60;;;;110815;1249;41264;-65
2022/08/25 01:31:53;;;;;;;9.50;3.40;;;;;17.90;97433.40;;;;110739;1249;41260;-64
2022/08/25 01:34:27;;;;;;;10.60;3.90;;;;;17.80;97438.00;;;;110647;1249;41140;-64
2022/08/25 01:36:58;;;;;;;11.10;3.50;;;;;17.80;97431.20;;;;110619;1249;41150;-64
2022/08/25 01:39:29;;;;;;;11.90;3.80;;;;;17.80;97430.40;;;;110617;1250;41196;-65
2022/08/25 01:42:02;;;;;;;9.50;4.00;;;;;17.80;97436.20;;;;110673;1250;41427;-65
2022/08/25 01:44:34;;;;;;;11.10;3.50;;;;;17.70;97432.20;;;;110647;1249;41157;-65
2022/08/25 01:47:05;;;;;;;8.00;2.80;;;;;17.68;97436.20;;;;110684;1249;41601;-65
2022/08/25 01:49:34;;;;;;;7.50;3.20;;;;;17.60;97437.60;;;;110652;1248;41269;-65
2022/08/25 01:52:24;;;;;;;11.10;3.70;;;;;17.60;97440.40;;;;110553;1250;41189;-65
2022/08/25 01:54:53;;;;;;;9.30;2.90;;;;;17.60;97437.40;;;;110681;1251;41152;-66
2022/08/25 01:57:23;;;;;;;7.80;2.80;;;;;17.50;97432.80;;;;110688;1251;41197;-66
2022/08/25 01:59:53;;;;;;;6.40;2.70;;;;;17.50;97428.80;;;;110644;1250;40812;-65
2022/08/25 02:02:22;;;;;;;15.60;3.70;;;;;17.50;97421.80;;;;110684;1250;41283;-65
2022/08/25 02:04:54;;;;;;;13.30;4.50;;;;;17.48;97424.00;;;;110666;1249;41728;-65
2022/08/25 02:07:24;;;;;;;11.90;4.70;;;;;17.40;97421.40;;;;110669;1250;41166;-65
2022/08/25 02:09:53;;;;;;;8.60;3.50;;;;;17.40;97422.00;;;;110659;1250;41273;-66
2022/08/25 02:12:23;;;;;;;11.60;3.90;;;;;17.40;97421.80;;;;110669;1250;41157;-66
2022/08/25 02:14:53;;;;;;;9.30;3.40;;;;;17.40;97421.20;;;;110660;1250;41818;-65
2022/08/25 02:17:23;;;;;;;10.00;3.40;;;;;17.30;97421.20;;;;110758;1249;41254;-65
2022/08/25 02:19:55;;;;;;;9.70;3.30;;;;;17.30;97422.40;;;;110712;1249;41276;-65
2022/08/25 02:22:25;;;;;;;10.80;3.60;;;;;17.30;97419.20;;;;110666;1250;41167;-65
2022/08/25 02:24:55;;;;;;;;;;;;;17.20;97421.00;;;;110718;1249;41599;-65
2022/08/25 02:27:25;;;;;;;15.00;3.00;;;;;17.18;97426.00;;;;110719;1249;41160;-65
2022/08/25 02:29:56;;;;;;;12.10;3.50;;;;;17.12;97427.80;;;;110735;1249;41251;-65
2022/08/25 02:32:26;;;;;;;12.30;3.90;;;;;17.10;97425.60;;;;110743;1250;41135;-64
2022/08/25 02:34:56;;;;;;;15.60;4.50;;;;;17.12;97425.00;;;;110735;1249;41453;-64
2022/08/25 02:37:25;;;;;;;10.60;4.00;;;;;17.10;97422.40;;;;110708;1250;41463;-64
2022/08/25 02:39:55;;;;;;;12.10;3.60;;;;;17.10;97428.40;;;;110757;1249;41139;-64
2022/08/25 02:42:26;;;;;;;11.60;4.10;;;;;17.04;97432.60;;;;110737;1250;41753;-64
2022/08/25 02:44:56;;;;;;;11.70;3.70;;;;;16.88;97434.40;;;;110731;1249;41298;-64
2022/08/25 02:47:26;;;;;;;;;;;;;16.90;97438.00;;;;110853;1249;41965;-64
2022/08/25 02:49:56;;;;;;;11.20;3.50;;;;;16.80;97443.00;;;;110694;1249;41995;-64
2022/08/25 02:52:27;;;;;;;10.50;3.30;;;;;16.78;97443.40;;;;110689;1249;41140;-66
2022/08/25 02:54:57;;;;;;;7.80;2.90;;;;;16.76;97446.20;;;;110799;1250;41142;-65
2022/08/25 02:57:28;;;;;;;10.10;3.40;;;;;16.72;97448.40;;;;110798;1249;41979;-68
2022/08/25 02:59:58;;;;;;;9.00;3.00;;;;;16.70;97448.00;;;;110664;1249;41143;-65
2022/08/25 03:02:28;;;;;;;6.90;2.80;;;;;16.70;97448.00;;;;110741;1249;41136;-67
2022/08/25 03:04:58;;;;;;;9.10;3.10;;;;;16.70;97444.00;;;;110760;1251;41547;-66
2022/08/25 03:07:28;;;;;;;11.10;2.90;;;;;16.70;97437.80;;;;110767;1251;41144;-65
2022/08/25 03:09:58;;;;;;;10.80;3.80;;;;;16.68;97445.40;;;;110725;1249;41153;-65
2022/08/25 03:12:29;;;;;;;10.70;4.00;;;;;16.68;97440.00;;;;110789;1250;41154;-65
2022/08/25 03:14:59;;;;;;;10.30;3.20;;;;;16.68;97441.40;;;;110737;1250;41411;-66
2022/08/25 03:17:30;;;;;;;9.40;3.50;;;;;16.60;97441.40;;;;110709;1249;41253;-65
2022/08/25 03:20:00;;;;;;;15.10;4.20;;;;;16.60;97444.00;;;;110750;1250;41259;-66
2022/08/25 03:22:30;;;;;;;8.40;3.20;;;;;16.60;97451.80;;;;110957;1249;41609;-68
2022/08/25 03:27:51;;;;;;;13.20;3.70;;;;;16.50;97452.60;;;;110966;1250;41144;-66
2022/08/25 03:30:21;;;;;;;16.60;4.40;;;;;16.42;97456.20;;;;110917;1250;41620;-66
2022/08/25 03:32:51;;;;;;;9.20;3.40;;;;;16.50;97460.80;;;;110944;1248;41270;-65
2022/08/25 03:35:21;;;;;;;8.80;3.30;;;;;16.50;97452.60;;;;110802;1249;41296;-66
2022/08/25 03:37:55;;;;;;;13.00;4.20;;;;;16.50;97461.00;;;;110883;1250;41348;-67
2022/08/25 03:40:25;;;;;;;11.00;3.80;;;;;16.50;97460.80;;;;110959;1250;41266;-65
2022/08/25 03:42:55;;;;;;;23.40;3.50;;;;;16.40;97460.40;;;;110942;1250;41255;-65
2022/08/25 03:45:25;;;;;;;8.90;3.70;;;;;16.40;97464.20;;;;110795;1249;41157;-66
2022/08/25 03:47:54;;;;;;;8.60;3.90;;;;;16.36;97463.20;;;;110850;1249;41949;-66
2022/08/25 03:50:24;;;;;;;11.20;3.50;;;;;16.30;97467.80;;;;110916;1249;41262;-66
2022/08/25 03:52:55;;;;;;;13.80;4.00;;;;;16.30;97470.40;;;;110842;1249;41138;-65
2022/08/25 03:55:25;;;;;;;7.60;3.20;;;;;16.30;97470.80;;;;110812;1250;41158;-66
2022/08/25 03:57:56;;;;;;;10.00;4.00;;;;;16.32;97468.00;;;;110886;1249;41143;-65
2022/08/25 04:00:25;;;;;;;9.80;3.10;;;;;16.30;97468.80;;;;110619;1250;41133;-64
2022/08/25 04:02:55;;;;;;;12.60;2.80;;;;;16.40;97466.60;;;;110606;1249;42324;-64
2022/08/25 04:05:25;;;;;;;8.40;2.90;;;;;16.40;97462.40;;;;110624;1250;41305;-65
2022/08/25 04:07:55;;;;;;;6.80;2.70;;;;;16.40;97461.60;;;;110649;1249;41275;-64
2022/08/25 04:10:25;;;;;;;6.60;2.60;;;;;16.48;97458.60;;;;110865;1249;41705;-65
2022/08/25 04:12:54;;;;;;;9.60;4.10;;;;;16.50;97462.00;;;;110978;1250;41152;-66
2022/08/25 04:15:24;;;;;;;7.50;3.40;;;;;16.50;97464.80;;;;110828;1249;41238;-65
2022/08/25 04:17:57;;;;;;;9.60;3.40;;;;;16.52;97464.20;;;;110995;1250;41604;-66
2022/08/25 04:20:27;;;;;;;10.00;3.00;;;;;16.60;97467.60;;;;110871;1250;41613;-65
2022/08/25 04:22:59;;;;;;;9.20;3.10;;;;;16.60;97463.60;;;;110980;1248;41154;-65
2022/08/25 04:25:28;;;;;;;7.60;3.10;;;;;16.60;97464.40;;;;110955;1250;41224;-64
2022/08/25 04:27:58;;;;;;;9.50;3.10;;;;;16.70;97462.80;;;;110932;1249;41146;-65
2022/08/25 04:30:27;;;;;;;10.80;2.90;;;;;16.70;97465.00;;;;110809;1249;42089;-65
2022/08/25 04:32:56;;;;;;;11.80;4.30;;;;;16.70;97462.80;;;;110771;1249;42379;-65
2022/08/25 04:35:26;;;;;;;12.70;4.00;;;;;16.76;97464.40;;;;110888;1249;41925;-64
2022/08/25 04:37:55;;;;;;;8.00;3.30;;;;;16.80;97465.60;;;;110753;1249;41263;-65
2022/08/25 04:40:25;;;;;;;7.90;3.40;;;;;16.80;97470.00;;;;110763;1251;41262;-65
2022/08/25 04:42:56;;;;;;;8.20;3.30;;;;;16.86;97469.80;;;;110783;1249;41245;-65
2022/08/25 04:45:25;;;;;;;10.10;2.90;;;;;16.90;97468.20;;;;111211;1249;41670;-64
2022/08/25 04:47:59;;;;;;;11.90;3.30;;;;;17.00;97468.80;;;;110894;1249;41267;-65
2022/08/25 04:50:28;;;;;;;9.90;4.30;;;;;17.04;97472.40;;;;110815;1249;41315;-65
2022/08/25 04:53:00;;;;;;;9.10;3.70;;;;;17.10;97471.20;;;;110627;1249;41400;-66
2022/08/25 04:55:29;;;;;;;9.10;3.90;;;;;17.18;97471.40;;;;109696;1250;1520465;-65
2022/08/25 04:57:58;;;;;;;14.80;3.70;;;;;17.20;97463.40;;;;110870;1249;41264;-65
2022/08/25 05:00:27;;;;;;;11.00;4.00;;;;;17.30;97469.40;;;;110667;1249;41163;-64
2022/08/25 05:02:56;;;;;;;8.70;3.80;;;;;17.40;97470.00;;;;110707;1250;41502;-65
2022/08/25 05:05:42;;;;;;;10.90;4.30;;;;;17.50;97466.20;;;;110806;1250;41625;-65
2022/08/25 05:08:11;;;;;;;10.80;4.40;;;;;17.52;97466.80;;;;110943;1250;41932;-65
2022/08/25 05:10:41;;;;;;;11.50;3.80;;;;;17.54;97467.60;;;;110999;1250;41494;-65
2022/08/25 05:13:10;;;;;;;11.90;4.10;;;;;17.60;97473.20;;;;110855;1250;41273;-64
2022/08/25 05:15:51;;;;;;;9.60;4.10;;;;;17.64;97474.00;;;;110830;1250;41261;-65
2022/08/25 05:18:22;;;;;;;10.40;3.40;;;;;17.70;97469.00;;;;110611;1250;41251;-65
2022/08/25 05:20:54;;;;;;;9.20;3.50;;;;;17.74;97470.40;;;;110631;1250;42063;-65
2022/08/25 05:23:24;;;;;;;10.40;3.30;;;;;17.90;97477.60;;;;110892;1250;41168;-65
2022/08/25 05:25:52;;;;;;;8.80;3.10;;;;;18.00;97466.80;;;;110872;1249;41724;-65
2022/08/25 05:28:22;;;;;;;10.60;3.20;;;;;18.20;97473.40;;;;110925;1250;41149;-65
2022/08/25 05:30:50;;;;;;;12.10;4.00;;;;;18.40;97467.80;;;;110881;1250;41143;-65
2022/08/25 05:33:19;;;;;;;11.50;3.80;;;;;18.60;97475.00;;;;110708;1249;41625;-65
2022/08/25 05:35:48;;;;;;;9.70;3.30;;;;;18.80;97475.60;;;;110813;1250;41172;-65
2022/08/25 05:38:17;;;;;;;8.10;3.10;;;;;19.10;97469.00;;;;110948;1250;41872;-65
2022/08/25 05:40:46;;;;;;;9.20;2.70;;;;;19.44;97468.20;;;;110882;1249;41950;-65
2022/08/25 05:43:15;;;;;;;12.70;3.70;;;;;19.96;97464.40;;;;110635;1250;41614;-65
2022/08/25 05:45:45;;;;;;;11.70;3.80;;;;;20.20;97457.40;;;;110662;1250;41156;-66
2022/08/25 05:48:14;;;;;;;10.40;4.10;;;;;20.46;97466.40;;;;110701;1250;41469;-65
2022/08/25 05:50:51;;;;;;;13.20;3.30;;;;;20.70;97463.60;;;;110745;1249;41523;-65
2022/08/25 05:53:21;;;;;;;14.90;4.10;;;;;20.72;97465.20;;;;110857;1249;41160;-65
2022/08/25 05:55:52;;;;;;;13.50;3.70;;;;;20.84;97460.80;;;;110855;1249;41357;-65
2022/08/25 05:58:22;;;;;;;15.60;4.90;;;;;21.00;97462.60;;;;110740;1249;41613;-65
2022/08/25 06:00:51;;;;;;;11.50;3.30;;;;;21.40;97451.80;;;;110974;1249;41136;-65
2022/08/25 06:03:20;;;;;;;9.70;3.20;;;;;22.08;97442.40;;;;110634;1249;41154;-65
2022/08/25 06:05:49;;;;;;;12.20;3.10;;;;;22.98;97441.60;;;;110647;1249;41258;-65
2022/08/25 06:08:18;;;;;;;7.70;2.80;;;;;23.82;97440.60;;;;110699;1250;41690;-65
2022/08/25 06:10:51;;;;;;;10.20;3.50;;;;;24.40;97442.00;;;;110684;1249;41814;-65
2022/08/25 06:13:20;;;;;;;13.60;3.60;;;;;24.84;97431.20;;;;110693;1250;41270;-65
2022/08/25 06:15:58;;;;;;;11.70;4.20;;;;;25.10;97434.40;;;;110717;1251;41910;-65
2022/08/25 06:18:27;;;;;;;11.30;3.90;;;;;25.28;97433.40;;;;110851;1249;41610;-65
2022/08/25 06:20:56;;;;;;;12.00;3.00;;;;;25.70;97434.00;;;;110809;1250;41335;-66
2022/08/25 06:23:24;;;;;;;9.30;3.10;;;;;26.40;97432.00;;;;110758;1251;41148;-65
2022/08/25 06:25:55;;;;;;;17.60;4.10;;;;;27.10;97432.00;;;;110530;1251;41235;-65
2022/08/25 06:28:24;;;;;;;12.10;3.10;;;;;27.60;97433.00;;;;110668;1249;41147;-65
2022/08/25 06:30:58;;;;;;;9.80;3.30;;;;;27.98;97430.00;;;;110714;1250;41271;-65
2022/08/25 06:33:27;;;;;;;10.50;3.60;;;;;28.40;97437.80;;;;110698;1251;41260;-65
2022/08/25 06:35:57;;;;;;;14.90;3.90;;;;;28.90;97439.60;;;;110824;1249;41152;-65
2022/08/25 06:38:26;;;;;;;14.00;3.90;;;;;29.30;97441.80;;;;110553;1251;41764;-65
2022/08/25 06:40:56;;;;;;;12.40;3.40;;;;;29.60;97437.40;;;;110527;1251;41347;-65
2022/08/25 06:43:26;;;;;;;10.50;3.00;;;;;29.90;97435.00;;;;110597;1252;41153;-65
2022/08/25 06:45:55;;;;;;;10.70;3.40;;;;;30.30;97434.20;;;;110924;1251;41215;-65
2022/08/25 06:48:24;;;;;;;16.90;3.40;;;;;30.70;97431.80;;;;110843;1250;41820;-65
2022/08/25 06:50:53;;;;;;;15.10;3.90;;;;;30.82;97435.20;;;;110805;1251;41151;-65
2022/08/25 06:53:21;;;;;;;11.60;3.50;;;;;31.02;97430.80;;;;110831;1251;42663;-66
2022/08/25 06:55:57;;;;;;;17.20;3.70;;;;;31.20;97441.80;;;;110788;1250;41137;-67
2022/08/25 06:58:29;;;;;;;14.90;4.40;;;;;31.40;97438.60;;;;110758;1251;41162;-66
2022/08/25 07:01:15;;;;;;;22.50;4.10;;;;;30.86;97438.40;;;;110624;1249;41263;-66
2022/08/25 07:03:48;;;;;;;14.60;3.60;;;;;31.22;97440.00;;;;110589;1249;41150;-67
2022/08/25 07:06:17;;;;;;;11.20;3.30;;;;;31.36;97434.20;;;;110609;1249;42353;-66
2022/08/25 07:08:47;;;;;;;13.50;3.20;;;;;31.80;97435.00;;;;110750;1249;41170;-66
2022/08/25 07:11:17;;;;;;;12.10;3.40;;;;;32.40;97432.80;;;;110721;1249;41169;-66
2022/08/25 07:13:47;;;;;;;14.00;3.00;;;;;32.80;97432.40;;;;110989;1249;41953;-66
2022/08/25 07:16:19;;;;;;;11.30;3.30;;;;;33.20;97429.00;;;;110876;1249;41248;-67
2022/08/25 07:18:47;;;;;;;18.60;3.40;;;;;33.60;97436.00;;;;110992;1250;41251;-67
2022/08/25 07:21:17;;;;;;;14.20;3.50;;;;;34.00;97431.20;;;;111027;1250;42553;-67
2022/08/25 07:23:49;;;;;;;15.80;3.90;;;;;34.12;97429.20;;;;110729;1249;41150;-67
2022/08/25 07:26:21;;;;;;;13.90;3.20;;;;;33.90;97425.00;;;;110865;1249;41177;-67
2022/08/25 07:29:10;;;;;;;16.50;3.90;;;;;33.64;97424.80;;;;110686;1249;41754;-68
2022/08/25 07:31:40;;;;;;;11.80;3.40;;;;;34.20;97423.40;;;;110734;1249;41633;-67
2022/08/25 07:36:57;;;;;;;14.40;3.70;;;;;34.14;97416.60;;;;110586;1249;41267;-67
2022/08/25 07:39:26;;;;;;;17.00;3.30;;;;;33.72;97416.40;;;;110837;1251;41141;-67
2022/08/25 07:41:56;;;;;;;;;;;;;33.26;97418.00;;;;110876;1249;41159;-67
2022/08/25 07:44:26;;;;;;;12.40;3.30;;;;;33.46;97415.40;;;;110752;1249;42255;-67
2022/08/25 07:46:55;;;;;;;12.10;3.00;;;;;33.80;97418.80;;;;110720;1249;41139;-67
2022/08/25 07:49:25;;;;;;;13.80;3.50;;;;;34.10;97416.40;;;;110700;1251;41158;-68
2022/08/25 07:51:54;;;;;;;14.70;3.30;;;;;34.26;97414.40;;;;110722;1249;41246;-68
2022/08/25 07:54:35;;;;;;;10.50;3.10;;;;;34.50;97409.40;;;;110677;1251;41149;-68
2022/08/25 07:57:07;;;;;;;11.30;3.10;;;;;34.66;97412.00;;;;110829;1250;42184;-68
2022/08/25 07:59:41;;;;;;;16.10;3.70;;;;;34.20;97415.40;;;;110691;1250;42176;-68
2022/08/25 08:02:11;;;;;;;13.60;3.50;;;;;33.92;97421.00;;;;110672;1249;41175;-68
2022/08/25 08:04:48;;;;;;;10.60;2.90;;;;;33.50;97419.00;;;;110696;1249;41251;-68
2022/08/25 08:07:18;;;;;;;10.70;2.70;;;;;33.52;97417.60;;;;110735;1249;42382;-68
2022/08/25 08:09:47;;;;;;;15.80;3.00;;;;;34.26;97416.40;;;;110690;1249;41261;-69
2022/08/25 08:12:24;;;;;;;19.10;3.40;;;;;35.26;97405.80;;;;110603;1250;41438;-68
2022/08/25 08:14:53;;;;;;;11.50;2.50;;;;;35.94;97399.80;;;;110735;1250;41156;-68
2022/08/25 08:17:22;;;;;;;13.00;3.00;;;;;37.08;97389.40;;;;110631;1249;41898;-69
2022/08/25 08:19:51;;;;;;;17.50;3.00;;;;;38.14;97387.20;;;;110590;1251;42053;-69
2022/08/25 08:22:20;;;;;;;11.20;2.50;;;;;39.12;97382.80;;;;110638;1250;42055;-69
2022/08/25 08:24:49;;;;;;;10.60;2.70;;;;;40.18;97380.80;;;;110705;1249;41716;-69
2022/08/25 08:27:22;;;;;;;11.80;2.50;;;;;40.86;97380.00;;;;110709;1250;41499;-69
2022/08/25 08:29:52;;;;;;;14.00;2.90;;;;;41.22;97380.40;;;;110940;1250;41594;-69
2022/08/25 08:32:21;;;;;;;;;;;;;41.12;97372.40;;;;110900;1250;41237;-69
2022/08/25 08:34:50;;;;;;;11.10;2.50;;;;;41.60;97372.60;;;;110881;1250;41894;-69
2022/08/25 08:37:21;;;;;;;8.50;2.40;;;;;42.16;97367.60;;;;110925;1250;41230;-70
2022/08/25 08:39:51;;;;;;;11.30;2.70;;;;;42.60;97372.00;;;;110787;1250;41464;-69
2022/08/25 08:42:41;;;;;;;12.10;2.50;;;;;43.00;97372.20;;;;110699;1250;41722;-70
2022/08/25 08:45:28;;;;;;;13.80;2.60;;;;;43.30;97368.80;;;;110840;1250;41675;-68
2022/08/25 08:48:32;;;;;;;8.80;2.20;;;;;43.50;97375.40;;;;110799;1249;42185;-69
2022/08/25 08:51:26;;;;;;;12.30;2.50;;;;;43.72;97370.20;;;;110796;1251;41261;-69
2022/08/25 08:54:09;;;;;;;14.20;2.70;;;;;43.80;97367.40;;;;110754;1249;42139;-69
2022/08/25 08:56:46;;;;;;;10.90;2.70;;;;;43.64;97368.40;;;;110595;1251;41722;-70
2022/08/25 08:59:20;;;;;;;12.10;2.70;;;;;43.40;97370.20;;;;110720;1250;41711;-69
2022/08/25 09:01:58;;;;;;;9.50;2.50;;;;;43.42;97372.00;;;;110651;1249;41159;-69
2022/08/25 09:04:52;;;;;;;11.60;2.70;;;;;43.60;97369.00;;;;110863;1249;41169;-70
2022/08/25 09:07:27;;;;;;;19.10;2.50;;;;;43.70;97362.80;;;;110736;1250;41273;-70
2022/08/25 09:09:56;;;;;;;10.30;2.40;;;;;43.90;97362.80;;;;110605;1249;42252;-69
2022/08/25 09:12:26;;;;;;;;;;;;;43.82;97359.60;;;;110797;1251;42157;-69
2022/08/25 09:16:53;;;;;;;12.60;2.50;;;;;44.00;97361.60;;;;110709;1249;41513;-70
2022/08/25 09:18:45;;;;;;;13.40;2.30;;;;;44.02;97368.20;;;;110704;1251;41617;-70
2022/08/25 09:21:36;;;;;;;16.00;2.70;;;;;44.20;97368.20;;;;110659;1251;41273;-70
2022/08/25 09:24:40;;;;;;;10.60;2.20;;;;;44.40;97359.40;;;;110853;1249;41157;-70
2022/08/25 09:27:31;;;;;;;11.00;2.50;;;;;44.60;97355.80;;;;110578;1250;42197;-70
2022/08/25 09:30:13;;;;;;;9.80;2.10;;;;;44.60;97354.80;;;;110615;1249;41996;-70
2022/08/25 09:33:00;;;;;;;8.20;2.30;;;;;44.70;97350.20;;;;110694;1251;41133;-70
2022/08/25 09:35:32;;;;;;;7.20;2.30;;;;;44.80;97347.60;;;;110864;1249;41182;-70
2022/08/25 09:38:06;;;;;;;10.60;2.00;;;;;45.02;97347.80;;;;110898;1249;41984;-70
2022/08/25 09:40:43;;;;;;;10.50;1.90;;;;;45.10;97346.20;;;;110668;1251;41840;-70
2022/08/25 09:43:27;;;;;;;8.50;2.00;;;;;45.02;97343.80;;;;110610;1251;41975;-70
2022/08/25 09:46:25;;;;;;;10.00;2.30;;;;;44.92;97340.00;;;;110931;1251;41188;-70
2022/08/25 09:48:56;;;;;;;13.50;2.20;;;;;44.90;97331.20;;;;110701;1250;42128;-71
2022/08/25 09:51:28;;;;;;;10.20;2.40;;;;;44.94;97331.20;;;;110743;1249;41452;-71
2022/08/25 09:54:17;;;;;;;7.40;2.20;;;;;44.76;97331.80;;;;110660;1250;41308;-71
2022/08/25 09:56:50;;;;;;;12.60;2.60;;;;;44.50;97337.20;;;;110828;1249;42367;-71
2022/08/25 09:59:25;;;;;;;8.90;2.20;;;;;44.30;97334.00;;;;110922;1249;41211;-71
2022/08/25 10:02:05;;;;;;;11.50;2.30;;;;;43.86;97331.00;;;;110886;1250;41952;-72
2022/08/25 10:04:38;;;;;;;10.60;1.90;;;;;43.80;97328.40;;;;110658;1251;41180;-69
2022/08/25 10:07:24;;;;;;;6.70;1.80;;;;;43.40;97329.60;;;;110858;1250;41707;-72
2022/08/25 10:09:58;;;;;;;12.00;2.60;;;;;43.50;97326.80;;;;110797;1250;42019;-71
2022/08/25 10:12:40;;;;;;;12.60;2.20;;;;;43.50;97327.80;;;;110619;1250;41264;-70
2022/08/25 10:15:24;;;;;;;6.90;1.80;;;;;43.60;97323.00;;;;110872;1250;42307;-71
2022/08/25 10:18:24;;;;;;;9.40;2.10;;;;;44.00;97321.20;;;;110758;1249;42525;-71
2022/08/25 10:21:11;;;;;;;6.90;2.00;;;;;44.38;97314.40;;;;110722;1250;41249;-70
2022/08/25 10:23:51;;;;;;;7.00;1.70;;;;;44.60;97311.40;;;;110746;1250;41258;-71
2022/08/25 10:26:40;;;;;;;9.50;2.00;;;;;45.00;97309.20;;;;110683;1249;41316;-71
2022/08/25 10:29:24;;;;;;;12.80;2.40;;;;;45.10;97308.80;;;;110644;1250;41916;-71
2022/08/25 10:31:57;;;;;;;8.40;2.10;;;;;45.10;97303.20;;;;110958;1250;41137;-71
2022/08/25 10:34:48;;;;;;;6.90;1.80;;;;;45.10;97299.60;;;;110987;1250;41698;-72
2022/08/25 10:37:25;;;;;;;6.70;1.70;;;;;45.06;97299.80;;;;110982;1249;41203;-72
2022/08/25 10:40:01;;;;;;;7.60;2.00;;;;;45.30;97299.40;;;;111005;1250;41149;-71
2022/08/25 10:42:48;;;;;;;7.90;2.20;;;;;45.50;97297.80;;;;110825;1249;41389;-72
2022/08/25 10:45:44;;;;;;;6.60;2.00;;;;;45.30;97293.60;;;;110720;1251;41261;-72
2022/08/25 10:48:19;;;;;;;6.60;2.00;;;;;44.90;97293.80;;;;110550;1252;41160;-72
2022/08/25 10:50:53;;;;;;;7.70;2.10;;;;;44.90;97293.20;;;;110704;1249;41622;-72
2022/08/25 10:53:47;;;;;;;11.80;2.40;;;;;44.90;97293.00;;;;110688;1250;41153;-71
2022/08/25 10:56:20;;;;;;;8.40;1.80;;;;;44.88;97292.20;;;;110685;1250;41622;-72
2022/08/25 10:58:58;;;;;;;11.40;2.10;;;;;44.22;97289.80;;;;110642;1250;41531;-72
2022/08/25 11:01:54;;;;;;;5.40;1.80;;;;;44.00;97286.40;;;;110653;1249;41616;-72
2022/08/25 11:04:35;;;;;;;8.00;2.00;;;;;43.90;97284.00;;;;110802;1250;41652;-72
2022/08/25 11:07:27;;;;;;;7.00;2.00;;;;;43.44;97281.60;;;;110728;1249;41154;-72
2022/08/25 11:10:05;;;;;;;10.30;2.10;;;;;43.10;97279.40;;;;110813;1250;41994;-71
2022/08/25 11:12:43;;;;;;;8.70;1.90;;;;;43.00;97283.40;;;;110992;1249;41156;-73
2022/08/25 11:15:21;;;;;;;5.90;1.90;;;;;43.16;97273.20;;;;110910;1250;41610;-71
2022/08/25 11:18:00;;;;;;;10.60;2.20;;;;;43.30;97275.00;;;;110699;1250;41161;-70
2022/08/25 11:20:37;;;;;;;9.50;2.10;;;;;43.26;97271.40;;;;110577;1251;41160;-71
2022/08/25 11:23:31;;;;;;;8.20;2.00;;;;;43.46;97273.60;;;;110734;1250;41723;-72
2022/08/25 11:26:05;;;;;;;7.30;2.10;;;;;43.70;97265.00;;;;110982;1250;41724;-71
2022/08/25 11:29:06;;;;;;;10.00;2.20;;;;;44.20;97258.60;;;;110904;1250;41176;-72
2022/08/25 11:31:42;;;;;;;7.90;2.00;;;;;45.14;97256.20;;;;110549;1250;41725;-72
2022/08/25 11:34:14;;;;;;;6.00;2.00;;;;;45.58;97251.60;;;;110675;1249;42000;-72
2022/08/25 11:36:50;;;;;;;7.60;2.10;;;;;46.10;97243.40;;;;110670;1250;41893;-72
2022/08/25 11:39:46;;;;;;;7.20;2.00;;;;;46.50;97241.40;;;;110935;1250;41155;-72
2022/08/25 11:42:44;;;;;;;6.60;2.00;;;;;46.82;97236.40;;;;110804;1250;41255;-72
2022/08/25 11:45:31;;;;;;;6.20;2.00;;;;;46.74;97230.00;;;;110812;1250;41148;-72
2022/08/25 11:48:28;;;;;;;11.80;1.80;;;;;46.90;97232.80;;;;110710;1249;41258;-72
2022/08/25 11:51:08;;;;;;;5.00;1.50;;;;;46.80;97233.40;;;;110834;1250;41127;-73
2022/08/25 11:53:39;;;;;;;5.90;1.90;;;;;47.20;97238.80;;;;110674;1251;41290;-73
2022/08/25 11:56:31;;;;;;;8.80;2.10;;;;;47.66;97235.00;;;;110800;1251;41647;-73
2022/08/25 11:59:00;;;;;;;9.20;1.90;;;;;48.00;97229.00;;;;110637;1250;41120;-73
2022/08/25 12:01:43;;;;;;;9.30;2.40;;;;;48.18;97225.20;;;;110600;1251;42152;-72
2022/08/25 12:04:30;;;;;;;8.40;2.10;;;;;47.90;97229.20;;;;110597;1249;41156;-73
2022/08/25 12:07:05;;;;;;;12.50;2.10;;;;;47.80;97229.60;;;;110661;1250;41157;-74
2022/08/25 12:09:49;;;;;;;5.80;1.60;;;;;47.92;97223.40;;;;110961;1250;41261;-73
2022/08/25 12:12:37;;;;;;;6.50;2.20;;;;;48.20;97224.20;;;;111037;1250;42841;-74
2022/08/25 12:15:44;;;;;;;7.70;1.90;;;;;47.86;97220.60;;;;110813;1250;41475;-74
2022/08/25 12:18:13;;;;;;;7.00;1.80;;;;;48.30;97218.80;;;;110717;1251;42178;-74
2022/08/25 12:20:57;;;;;;;7.20;1.90;;;;;47.84;97218.80;;;;111034;1251;42287;-75
2022/08/25 12:23:49;;;;;;;9.50;1.90;;;;;47.80;97221.60;;;;110841;1251;41438;-75
2022/08/25 12:26:41;;;;;;;6.10;1.70;;;;;47.60;97220.40;;;;110791;1250;41138;-74
2022/08/25 12:29:35;;;;;;;7.20;2.00;;;;;47.86;97223.40;;;;110759;1251;41275;-75
2022/08/25 12:32:41;;;;;;;6.90;1.70;;;;;47.18;97221.60;;;;110966;1251;41609;-74
2022/08/25 12:35:12;;;;;;;10.10;2.00;;;;;46.70;97220.80;;;;110822;1251;41153;-73
2022/08/25 12:38:00;;;;;;;7.00;2.00;;;;;46.66;97217.20;;;;110931;1250;42349;-73
2022/08/25 12:40:34;;;;;;;9.20;2.00;;;;;46.92;97218.00;;;;110979;1251;41137;-74
2022/08/25 12:43:10;;;;;;;7.30;2.20;;;;;47.00;97217.00;;;;110695;1252;41357;-74
2022/08/25 12:45:44;;;;;;;10.80;2.30;;;;;46.90;97219.80;;;;110519;1251;41178;-73